createdAt,value
2022-12-23T00:00:32.038Z,101275.97
2022-12-23T00:03:39.874Z,101279.44
2022-12-23T00:06:45.568Z,101278.19
2022-12-23T00:09:51.156Z,101271.28
2022-12-23T00:13:15.434Z,101286.59
2022-12-23T00:16:21.992Z,101292.44
2022-12-23T00:19:27.870Z,101274.69
2022-12-23T00:22:52.326Z,101262.09
2022-12-23T00:25:58.733Z,101252.88
2022-12-23T00:29:04.658Z,101255.94
2022-12-23T00:32:10.653Z,101262.50
2022-12-23T00:35:17.060Z,101273.97
2022-12-23T00:38:41.881Z,101284.97
2022-12-23T00:42:06.196Z,101285.63
2022-12-23T00:45:17.320Z,101294.56
2022-12-23T00:48:41.823Z,101294.78
2022-12-23T00:51:47.538Z,101278.47
2022-12-23T00:54:53.038Z,101277.63
2022-12-23T00:57:59.432Z,101278.22
2022-12-23T01:01:24.472Z,101291.13
2022-12-23T01:04:49.377Z,101290.72
2022-12-23T01:07:56.427Z,101310.38
2022-12-23T01:11:07.811Z,101294.22
2022-12-23T01:14:14.223Z,101296.41
2022-12-23T01:17:20.394Z,101291.97
2022-12-23T01:20:26.204Z,101288.28
2022-12-23T01:23:33.695Z,101299.69
2022-12-23T01:26:39.565Z,101314.53
2022-12-23T01:29:46.953Z,101299.84
2022-12-23T01:32:53.352Z,101287.50
2022-12-23T01:36:04.054Z,101308.91
2022-12-23T01:39:09.967Z,101310.38
2022-12-23T01:42:38.007Z,101281.53
2022-12-23T01:45:44.202Z,101270.28
2022-12-23T01:48:52.909Z,101291.88
2022-12-23T01:51:58.418Z,101265.19
2022-12-23T01:55:04.600Z,101248.06
2022-12-23T01:58:37.289Z,101265.00
2022-12-23T02:02:02.041Z,101273.16
2022-12-23T02:05:08.877Z,101277.03
2022-12-23T02:08:36.603Z,101264.59
2022-12-23T02:11:55.670Z,101263.34
2022-12-23T02:15:41.433Z,101273.72
2022-12-23T02:18:55.606Z,101280.22
2022-12-23T02:22:10.910Z,101284.97
2022-12-23T02:25:54.108Z,101272.75
2022-12-23T02:29:34.597Z,101275.59
2022-12-23T02:32:58.511Z,101266.41
2022-12-23T02:36:13.596Z,101260.00
2022-12-23T02:39:44.884Z,101253.09
2022-12-23T02:43:05.211Z,101260.25
2022-12-23T02:46:14.164Z,101254.31
2022-12-23T02:49:33.907Z,101250.78
2022-12-23T02:52:41.660Z,101269.56
2022-12-23T02:55:49.902Z,101261.22
2022-12-23T02:59:00.819Z,101244.84
2022-12-23T03:02:07.025Z,101239.06
2022-12-23T03:05:40.791Z,101231.72
2022-12-23T03:08:46.507Z,101239.88
2022-12-23T03:12:09.169Z,101255.56
2022-12-23T03:15:23.906Z,101254.53
2022-12-23T03:18:39.781Z,101242.34
2022-12-23T03:21:48.051Z,101234.59
2022-12-23T03:24:59.787Z,101241.78
2022-12-23T03:28:15.723Z,101238.28
2022-12-23T03:31:27.765Z,101240.69
2022-12-23T03:34:40.816Z,101232.81
2022-12-23T03:37:50.000Z,101240.03
2022-12-23T03:41:04.183Z,101228.84
2022-12-23T03:44:33.494Z,101237.19
2022-12-23T03:47:52.799Z,101237.06
2022-12-23T03:51:04.794Z,101226.53
2022-12-23T03:54:19.887Z,101234.94
2022-12-23T03:57:44.148Z,101234.94
2022-12-23T04:01:02.162Z,101231.63
2022-12-23T04:04:32.585Z,101230.44
2022-12-23T04:07:43.624Z,101228.66
2022-12-23T04:10:49.790Z,101233.31
2022-12-23T04:13:55.596Z,101229.66
2022-12-23T04:17:01.966Z,101230.44
2022-12-23T04:20:08.423Z,101220.88
2022-12-23T04:23:14.235Z,101212.91
2022-12-23T04:26:19.849Z,101204.13
2022-12-23T04:29:25.978Z,101201.09
2022-12-23T04:32:31.789Z,101209.25
2022-12-23T04:35:37.543Z,101220.69
2022-12-23T04:38:43.780Z,101225.34
2022-12-23T04:41:49.714Z,101238.25
2022-12-23T04:44:56.176Z,101226.34
2022-12-23T04:48:02.316Z,101221.84
2022-12-23T04:51:08.227Z,101222.50
2022-12-23T04:54:14.247Z,101242.69
2022-12-23T04:57:19.681Z,101239.69
2022-12-23T05:00:25.068Z,101245.53
2022-12-23T05:03:31.474Z,101227.63
2022-12-23T05:06:38.027Z,101229.28
2022-12-23T05:09:43.294Z,101235.78
2022-12-23T05:12:48.878Z,101237.84
2022-12-23T05:15:55.825Z,101237.63
2022-12-23T05:19:02.257Z,101223.97
2022-12-23T05:22:08.336Z,101220.72
2022-12-23T05:25:14.394Z,101232.59
2022-12-23T05:28:23.563Z,101229.75
2022-12-23T05:31:29.050Z,101243.84
2022-12-23T05:34:34.915Z,101250.78
2022-12-23T05:37:41.409Z,101249.81
2022-12-23T05:40:47.439Z,101243.69
2022-12-23T05:43:54.480Z,101246.94
2022-12-23T05:47:00.854Z,101242.84
2022-12-23T05:50:07.902Z,101241.03
2022-12-23T05:53:13.666Z,101246.91
2022-12-23T05:56:20.238Z,101250.44
2022-12-23T05:59:30.998Z,101247.78
2022-12-23T06:02:37.769Z,101245.69
2022-12-23T06:05:44.702Z,101239.53
2022-12-23T06:08:54.474Z,101242.63
2022-12-23T06:12:05.323Z,101251.66
2022-12-23T06:15:11.416Z,101259.56
2022-12-23T06:18:17.203Z,101270.59
2022-12-23T06:21:23.004Z,101263.25
2022-12-23T06:24:28.898Z,101274.66
2022-12-23T06:27:35.030Z,101268.13
2022-12-23T06:30:40.683Z,101274.16
2022-12-23T06:33:47.833Z,101268.94
2022-12-23T06:36:54.484Z,101265.28
2022-12-23T06:40:01.522Z,101263.22
2022-12-23T06:43:07.667Z,101264.06
2022-12-23T06:46:14.882Z,101275.09
2022-12-23T06:49:22.496Z,101286.53
2022-12-23T06:52:28.870Z,101292.41
2022-12-23T06:55:35.609Z,101288.13
2022-12-23T06:58:41.523Z,101293.50
2022-12-23T07:01:47.887Z,101290.03
2022-12-23T07:04:54.207Z,101277.97
2022-12-23T07:08:00.532Z,101284.47
2022-12-23T07:11:06.918Z,101282.63
2022-12-23T07:14:13.499Z,101299.56
2022-12-23T07:17:19.449Z,101302.22
2022-12-23T07:20:25.792Z,101292.25
2022-12-23T07:23:32.789Z,101281.28
2022-12-23T07:26:39.488Z,101284.41
2022-12-23T07:29:45.299Z,101294.66
2022-12-23T07:36:42.828Z,101296.78
2022-12-23T07:39:47.929Z,101291.50
2022-12-23T07:42:58.641Z,101294.13
2022-12-23T07:46:08.802Z,101303.91
2022-12-23T07:49:14.518Z,101294.00
2022-12-23T07:52:19.952Z,101295.56
2022-12-23T07:55:25.203Z,101289.22
2022-12-23T07:58:30.653Z,101308.97
2022-12-23T08:01:36.066Z,101297.44
2022-12-23T08:04:45.953Z,101290.31
2022-12-23T08:07:52.431Z,101290.72
2022-12-23T08:11:06.661Z,101294.84
2022-12-23T08:14:12.274Z,101299.09
2022-12-23T08:17:17.662Z,101295.44
2022-12-23T08:20:23.278Z,101309.75
2022-12-23T08:23:30.168Z,101317.19
2022-12-23T08:26:35.429Z,101315.44
2022-12-23T08:29:41.059Z,101314.28
2022-12-23T08:32:46.714Z,101303.44
2022-12-23T08:35:55.092Z,101317.28
2022-12-23T08:39:04.147Z,101303.00
2022-12-23T08:42:10.068Z,101297.75
2022-12-23T08:45:16.267Z,101302.06
2022-12-23T08:48:21.877Z,101297.78
2022-12-23T08:51:28.021Z,101290.00
2022-12-23T08:54:33.173Z,101288.97
2022-12-23T08:57:39.179Z,101292.06
2022-12-23T09:00:44.581Z,101290.00
2022-12-23T09:03:51.458Z,101297.19
2022-12-23T09:06:56.792Z,101284.50
2022-12-23T09:10:02.383Z,101283.47
2022-12-23T09:13:08.124Z,101304.34
2022-12-23T09:16:14.335Z,101309.00
2022-12-23T09:19:20.678Z,101317.81
2022-12-23T09:22:26.060Z,101309.44
2022-12-23T09:25:31.851Z,101318.00
2022-12-23T09:28:37.911Z,101314.56
2022-12-23T09:31:51.230Z,101314.97
2022-12-23T09:35:01.838Z,101307.97
2022-12-23T09:38:16.017Z,101314.94
2022-12-23T09:41:53.995Z,101301.63
2022-12-23T09:45:47.125Z,101300.22
2022-12-23T09:49:10.820Z,101298.00
2022-12-23T09:52:53.717Z,101286.75
2022-12-23T09:56:05.790Z,101301.03
2022-12-23T09:59:46.280Z,101308.41
2022-12-23T10:03:07.774Z,101303.31
2022-12-23T10:06:28.642Z,101311.47
2022-12-23T10:09:44.482Z,101329.28
2022-12-23T10:12:56.714Z,101328.66
2022-12-23T10:16:24.960Z,101318.19
2022-12-23T10:19:54.088Z,101320.25
2022-12-23T10:23:09.603Z,101324.53
2022-12-23T10:26:34.535Z,101321.88
2022-12-23T10:29:54.472Z,101322.91
2022-12-23T10:33:12.954Z,101311.66
2022-12-23T10:36:58.709Z,101307.09
2022-12-23T10:40:33.071Z,101292.56
2022-12-23T10:44:07.955Z,101288.06
2022-12-23T10:47:30.333Z,101289.84
2022-12-23T10:51:00.331Z,101272.91
2022-12-23T10:54:38.133Z,101277.31
2022-12-23T10:57:49.785Z,101284.50
2022-12-23T11:01:18.863Z,101283.44
2022-12-23T11:04:59.085Z,101261.81
2022-12-23T11:08:50.226Z,101265.44
2022-12-23T11:13:06.864Z,101259.50
2022-12-23T11:17:12.186Z,101261.06
2022-12-23T11:20:33.786Z,101266.53
2022-12-23T11:23:51.606Z,101265.75
2022-12-23T11:27:32.339Z,101243.69
2022-12-23T11:31:09.482Z,101240.53
2022-12-23T11:34:31.739Z,101249.47
2022-12-23T11:38:01.783Z,101248.13
2022-12-23T11:41:32.765Z,101240.84
2022-12-23T11:45:22.061Z,101221.25
2022-12-23T11:49:20.179Z,101229.03
2022-12-23T11:52:49.605Z,101221.16
2022-12-23T11:56:34.936Z,101215.84
2022-12-23T12:00:10.623Z,101218.72
2022-12-23T12:03:43.278Z,101203.75
2022-12-23T12:07:08.249Z,101189.25
2022-12-23T12:10:30.534Z,101185.25
2022-12-23T12:14:14.789Z,101186.59
2022-12-23T12:17:59.437Z,101199.31
2022-12-23T12:25:28.452Z,101198.34
2022-12-23T12:28:54.700Z,101191.25
2022-12-23T12:33:08.764Z,101186.63
2022-12-23T12:37:31.031Z,101193.50
2022-12-23T12:41:39.087Z,101190.94
2022-12-23T12:45:25.236Z,101172.56
2022-12-23T12:49:14.395Z,101161.00
2022-12-23T12:52:50.822Z,101164.44
2022-12-23T12:57:09.053Z,101159.25
2022-12-23T13:00:38.483Z,101150.44
2022-12-23T13:04:37.147Z,101149.44
2022-12-23T13:08:33.300Z,101163.06
2022-12-23T13:12:26.201Z,101169.25
2022-12-23T13:16:15.503Z,101174.94
2022-12-23T13:19:49.766Z,101186.31
2022-12-23T13:23:51.144Z,101196.91
2022-12-23T13:27:36.686Z,101194.81
2022-12-23T13:31:31.803Z,101190.25
2022-12-23T13:35:13.790Z,101210.50
2022-12-23T13:39:03.609Z,101209.31
2022-12-23T13:42:54.672Z,101200.13
2022-12-23T13:47:10.197Z,101202.38
2022-12-23T13:51:08.824Z,101193.00
2022-12-23T13:55:22.466Z,101191.34
2022-12-23T13:58:58.605Z,101206.69
2022-12-23T14:02:59.938Z,101214.50
2022-12-23T14:06:45.759Z,101224.59
2022-12-23T14:10:21.724Z,101224.19
2022-12-23T14:14:12.615Z,101221.69
2022-12-23T14:18:26.175Z,101213.94
2022-12-23T14:22:20.521Z,101234.81
2022-12-23T14:25:54.028Z,101219.84
2022-12-23T14:29:42.959Z,101221.75
2022-12-23T14:33:41.938Z,101227.91
2022-12-23T14:37:45.355Z,101224.41
2022-12-23T14:41:50.567Z,101221.38
2022-12-23T14:45:54.166Z,101216.66
2022-12-23T14:50:11.917Z,101219.91
2022-12-23T14:53:51.351Z,101224.19
2022-12-23T14:57:40.513Z,101217.22
2022-12-23T15:01:33.337Z,101228.06
2022-12-23T15:05:11.623Z,101225.81
2022-12-23T15:08:39.626Z,101212.75
2022-12-23T15:12:12.921Z,101215.59
2022-12-23T15:15:52.603Z,101210.47
2022-12-23T15:19:45.976Z,101204.19
2022-12-23T15:23:15.310Z,101191.25
2022-12-23T15:26:35.516Z,101196.38
2022-12-23T15:29:55.020Z,101200.50
2022-12-23T15:33:43.089Z,101199.09
2022-12-23T15:36:43.080Z,101181.50
2022-12-23T15:40:02.005Z,101170.44
2022-12-23T15:43:26.769Z,101161.25
2022-12-23T15:46:43.392Z,101174.19
2022-12-23T15:49:58.711Z,101163.28
2022-12-23T15:53:19.104Z,101156.16
2022-12-23T15:56:40.932Z,101151.22
2022-12-23T16:00:04.836Z,101160.91
2022-12-23T16:04:05.408Z,101173.19
2022-12-23T16:07:52.780Z,101167.44
2022-12-23T16:11:27.786Z,101197.09
2022-12-23T16:15:02.066Z,101190.56
2022-12-23T16:18:28.578Z,101185.03
2022-12-23T16:22:02.603Z,101192.81
2022-12-23T16:25:54.818Z,101198.50
2022-12-23T16:29:26.293Z,101212.81
2022-12-23T16:33:00.129Z,101200.72
2022-12-23T16:36:47.610Z,101215.47
2022-12-23T16:40:28.512Z,101222.66
2022-12-23T16:43:52.404Z,101222.84
2022-12-23T16:47:20.826Z,101218.72
2022-12-23T16:50:44.067Z,101210.53
2022-12-23T16:54:06.866Z,101215.06
2022-12-23T16:57:32.312Z,101211.59
2022-12-23T17:01:07.263Z,101220.34
2022-12-23T17:04:32.834Z,101218.31
2022-12-23T17:07:56.080Z,101225.53
2022-12-23T17:11:41.023Z,101226.13
2022-12-23T17:15:11.686Z,101236.34
2022-12-23T17:18:40.160Z,101232.31
2022-12-23T17:22:24.323Z,101222.69
2022-12-23T17:25:49.035Z,101215.94
2022-12-23T17:29:18.713Z,101207.97
2022-12-23T17:32:41.061Z,101203.47
2022-12-23T17:36:02.911Z,101209.22
2022-12-23T17:39:23.287Z,101196.53
2022-12-23T17:42:33.281Z,101194.06
2022-12-23T17:45:38.693Z,101206.56
2022-12-23T17:48:47.237Z,101228.69
2022-12-23T17:51:52.689Z,101233.78
2022-12-23T17:54:58.495Z,101232.34
2022-12-23T17:58:04.128Z,101224.34
2022-12-23T18:01:23.734Z,101253.59
2022-12-23T18:04:29.470Z,101284.09
2022-12-23T18:07:34.760Z,101281.19
2022-12-23T18:10:40.997Z,101283.25
2022-12-23T18:13:48.300Z,101270.56
2022-12-23T18:16:53.974Z,101258.28
2022-12-23T18:19:59.515Z,101247.63
2022-12-23T18:23:05.513Z,101242.69
2022-12-23T18:26:15.476Z,101237.19
2022-12-23T18:29:20.812Z,101248.66
2022-12-23T18:32:28.324Z,101242.94
2022-12-23T18:35:39.994Z,101239.66
2022-12-23T18:38:45.442Z,101241.50
2022-12-23T18:41:50.672Z,101261.81
2022-12-23T18:44:56.243Z,101254.03
2022-12-23T18:48:04.414Z,101244.41
2022-12-23T18:51:15.345Z,101229.84
2022-12-23T18:54:20.930Z,101224.53
2022-12-23T18:57:26.521Z,101220.84
2022-12-23T19:00:33.852Z,101234.38
2022-12-23T19:03:40.098Z,101240.28
2022-12-23T19:06:46.257Z,101236.41
2022-12-23T19:09:51.697Z,101228.44
2022-12-23T19:12:57.111Z,101211.63
2022-12-23T19:16:02.543Z,101202.47
2022-12-23T19:19:08.360Z,101192.00
2022-12-23T19:22:13.663Z,101188.38
2022-12-23T19:25:19.685Z,101193.03
2022-12-23T19:28:24.899Z,101194.91
2022-12-23T19:31:30.044Z,101195.13
2022-12-23T19:34:35.867Z,101217.22
2022-12-23T19:37:42.695Z,101239.88
2022-12-23T19:40:57.698Z,101261.59
2022-12-23T19:44:03.769Z,101259.94
2022-12-23T19:47:09.417Z,101258.72
2022-12-23T19:50:14.749Z,101256.47
2022-12-23T19:53:19.974Z,101275.47
2022-12-23T19:56:26.289Z,101256.44
2022-12-23T19:59:31.727Z,101266.69
2022-12-23T20:02:37.507Z,101273.59
2022-12-23T20:05:50.846Z,101262.16
2022-12-23T20:09:00.907Z,101272.38
2022-12-23T20:12:07.429Z,101250.91
2022-12-23T20:15:12.505Z,101234.34
2022-12-23T20:18:17.453Z,101206.91
2022-12-23T20:21:23.394Z,101236.59
2022-12-23T20:24:28.571Z,101245.78
2022-12-23T20:27:33.955Z,101250.91
2022-12-23T20:30:39.732Z,101261.75
2022-12-23T20:33:46.157Z,101251.94
2022-12-23T20:36:51.584Z,101264.63
2022-12-23T20:39:56.838Z,101257.69
2022-12-23T20:43:03.433Z,101256.22
2022-12-23T20:46:12.535Z,101256.06
2022-12-23T20:49:17.894Z,101246.66
2022-12-23T20:52:23.261Z,101251.78
2022-12-23T20:55:29.045Z,101254.03
2022-12-23T20:58:55.277Z,101267.72
2022-12-23T21:02:01.418Z,101262.41
2022-12-23T21:05:06.857Z,101265.47
2022-12-23T21:08:12.226Z,101283.47
2022-12-23T21:11:18.339Z,101287.34
2022-12-23T21:14:23.794Z,101286.31
2022-12-23T21:17:31.352Z,101290.81
2022-12-23T21:20:37.744Z,101295.53
2022-12-23T21:23:43.274Z,101290.19
2022-12-23T21:26:55.390Z,101275.25
2022-12-23T21:30:02.016Z,101267.88
2022-12-23T21:33:07.502Z,101274.63
2022-12-23T21:36:19.776Z,101275.25
2022-12-23T21:39:26.179Z,101289.38
2022-12-23T21:42:31.500Z,101283.66
2022-12-23T21:45:37.079Z,101273.84
2022-12-23T21:48:43.302Z,101274.84
2022-12-23T21:51:48.551Z,101279.75
2022-12-23T21:54:54.114Z,101290.63
2022-12-23T21:57:59.719Z,101310.88
2022-12-23T22:01:14.952Z,101314.56
2022-12-23T22:04:20.560Z,101335.81
2022-12-23T22:07:26.169Z,101344.63
2022-12-23T22:10:31.760Z,101329.25
2022-12-23T22:13:37.272Z,101312.91
2022-12-23T22:16:43.394Z,101298.59
2022-12-23T22:19:49.078Z,101299.63
2022-12-23T22:22:54.985Z,101292.03
2022-12-23T22:26:00.114Z,101267.50
2022-12-23T22:29:07.197Z,101253.81
2022-12-23T22:32:12.808Z,101267.31
2022-12-23T22:35:18.141Z,101245.84
2022-12-23T22:38:23.738Z,101237.47
2022-12-23T22:41:30.533Z,101237.66
2022-12-23T22:44:36.271Z,101237.28
2022-12-23T22:47:41.611Z,101241.16
2022-12-23T22:50:47.322Z,101243.56
2022-12-23T22:53:53.703Z,101206.16
2022-12-23T22:56:59.456Z,101201.44
2022-12-23T23:00:11.972Z,101218.91
2022-12-23T23:03:18.457Z,101181.84
2022-12-23T23:06:32.422Z,101186.53
2022-12-23T23:09:37.941Z,101209.00
2022-12-23T23:12:44.800Z,101219.09
2022-12-23T23:15:50.741Z,101227.66
2022-12-23T23:18:56.395Z,101221.53
2022-12-23T23:22:01.935Z,101231.75
2022-12-23T23:25:07.526Z,101234.81
2022-12-23T23:28:13.123Z,101235.22
2022-12-23T23:34:44.674Z,101232.75
2022-12-23T23:37:50.232Z,101258.13
2022-12-23T23:40:57.497Z,101225.19
2022-12-23T23:44:02.652Z,101202.28
2022-12-23T23:47:08.200Z,101207.81
2022-12-23T23:50:13.976Z,101216.81
2022-12-23T23:53:19.798Z,101221.69
2022-12-23T23:56:27.945Z,101227.00
2022-12-23T23:59:35.596Z,101231.50
